createdAt,value
2018-07-28T00:00:52.606Z,25.40
2018-07-28T00:05:55.634Z,25.50
2018-07-28T00:10:58.694Z,25.50
2018-07-28T00:16:01.701Z,25.40
2018-07-28T00:21:04.715Z,25.30
2018-07-28T00:26:13.351Z,25.20
2018-07-28T00:31:16.412Z,25.20
2018-07-28T00:36:19.446Z,25.20
2018-07-28T00:41:22.475Z,25.30
2018-07-28T00:46:25.529Z,25.20
2018-07-28T00:51:28.759Z,25.20
2018-07-28T00:56:32.039Z,25.10
2018-07-28T01:01:35.060Z,24.90
2018-07-28T01:06:38.080Z,24.90
2018-07-28T01:11:41.117Z,24.80
2018-07-28T01:16:44.192Z,24.80
2018-07-28T01:21:47.202Z,24.70
2018-07-28T01:26:50.216Z,24.70
2018-07-28T01:31:53.260Z,24.60
2018-07-28T01:36:56.321Z,24.50
2018-07-28T01:41:59.323Z,24.50
2018-07-28T01:47:02.320Z,24.60
2018-07-28T01:52:05.788Z,24.50
2018-07-28T01:57:08.836Z,24.50
2018-07-28T02:02:11.986Z,24.50
2018-07-28T02:07:15.059Z,24.50
2018-07-28T02:12:18.100Z,24.40
2018-07-28T02:17:21.148Z,24.30
2018-07-28T02:22:24.267Z,24.20
2018-07-28T02:27:27.271Z,24.20
2018-07-28T02:32:30.383Z,24.10
2018-07-28T02:37:33.431Z,24.10
2018-07-28T02:47:39.582Z,24.00
2018-07-28T02:52:42.673Z,24.00
2018-07-28T02:57:45.706Z,23.90
2018-07-28T03:02:48.916Z,23.90
2018-07-28T03:07:52.532Z,24.00
2018-07-28T03:12:55.662Z,23.90
2018-07-28T03:17:59.836Z,23.80
2018-07-28T03:23:03.496Z,23.70
2018-07-28T03:28:06.649Z,23.70
2018-07-28T03:33:09.721Z,23.80
2018-07-28T03:38:12.823Z,23.70
2018-07-28T03:43:16.039Z,23.60
2018-07-28T03:48:19.129Z,23.70
2018-07-28T03:53:22.189Z,23.80
2018-07-28T03:58:25.323Z,23.80
2018-07-28T04:03:28.446Z,23.80
2018-07-28T04:08:31.530Z,23.90
2018-07-28T04:13:34.627Z,23.90
2018-07-28T04:18:37.663Z,24.00
2018-07-28T04:23:40.737Z,24.00
2018-07-28T04:28:43.789Z,24.00
2018-07-28T04:33:46.997Z,24.00
2018-07-28T04:38:50.296Z,24.10
2018-07-28T04:43:53.368Z,24.20
2018-07-28T04:48:56.439Z,24.30
2018-07-28T04:53:59.598Z,24.20
2018-07-28T04:59:02.666Z,24.20
2018-07-28T05:04:05.766Z,24.20
2018-07-28T05:09:09.744Z,24.30
2018-07-28T05:14:12.772Z,24.40
2018-07-28T05:19:15.803Z,24.50
2018-07-28T05:24:18.984Z,24.50
2018-07-28T05:29:22.039Z,24.60
2018-07-28T05:34:25.402Z,24.80
2018-07-28T05:44:31.471Z,24.80
2018-07-28T05:49:34.503Z,24.90
2018-07-28T05:54:37.587Z,25.00
2018-07-28T05:59:40.779Z,25.00
2018-07-28T06:04:43.923Z,25.20
2018-07-28T06:09:47.021Z,25.50
2018-07-28T06:14:50.183Z,25.70
2018-07-28T06:19:53.411Z,25.90
2018-07-28T06:24:56.707Z,25.90
2018-07-28T06:29:59.807Z,26.10
2018-07-28T06:35:02.939Z,26.00
2018-07-28T06:40:06.119Z,26.10
2018-07-28T06:45:09.205Z,26.40
2018-07-28T06:50:12.283Z,26.40
2018-07-28T06:55:15.361Z,26.20
2018-07-28T07:05:21.348Z,26.20
2018-07-28T07:10:24.456Z,26.50
2018-07-28T07:15:27.531Z,26.80
2018-07-28T07:20:30.665Z,26.90
2018-07-28T07:25:33.989Z,27.10
2018-07-28T07:30:37.099Z,27.00
2018-07-28T07:35:40.155Z,27.20
2018-07-28T07:40:43.351Z,27.40
2018-07-28T07:45:46.425Z,27.50
2018-07-28T07:50:49.476Z,27.70
2018-07-28T07:55:52.583Z,27.60
2018-07-28T08:00:55.583Z,27.60
2018-07-28T08:05:58.609Z,27.80
2018-07-28T08:11:01.705Z,27.90
2018-07-28T08:16:04.846Z,28.30
2018-07-28T08:26:11.070Z,28.40
2018-07-28T08:31:14.162Z,28.60
2018-07-28T08:36:17.220Z,28.70
2018-07-28T08:41:20.292Z,28.70
2018-07-28T08:46:23.332Z,28.70
2018-07-28T08:51:26.351Z,29.10
2018-07-28T08:56:29.373Z,29.20
2018-07-28T09:01:32.376Z,29.30
2018-07-28T09:11:38.683Z,29.70
2018-07-28T09:16:41.730Z,29.60
2018-07-28T09:21:44.759Z,29.70
2018-07-28T09:26:47.780Z,29.90
2018-07-28T09:31:51.281Z,30.40
2018-07-28T09:36:54.701Z,31.00
2018-07-28T09:41:58.679Z,31.40
2018-07-28T09:47:02.994Z,31.80
2018-07-28T09:57:09.736Z,32.70
2018-07-28T10:02:12.775Z,32.60
2018-07-28T10:07:15.813Z,32.60
2018-07-28T10:12:18.887Z,33.00
2018-07-28T10:17:21.907Z,33.60
2018-07-28T10:22:25.039Z,33.60
2018-07-28T10:27:28.056Z,33.30
2018-07-28T10:32:31.209Z,33.00
2018-07-28T10:37:34.305Z,32.80
2018-07-28T10:42:37.940Z,32.90
2018-07-28T10:47:41.024Z,32.60
2018-07-28T10:52:44.036Z,32.70
2018-07-28T10:57:47.057Z,33.20
2018-07-28T11:02:50.126Z,33.50
2018-07-28T11:07:53.155Z,33.50
2018-07-28T11:12:56.160Z,33.40
2018-07-28T11:17:59.169Z,33.40
2018-07-28T11:23:02.271Z,32.80
2018-07-28T11:28:05.351Z,32.80
2018-07-28T11:33:20.160Z,33.00
2018-07-28T11:38:36.128Z,33.10
2018-07-28T11:43:50.666Z,33.70
2018-07-28T11:48:54.122Z,34.00
2018-07-28T11:53:57.182Z,33.70
2018-07-28T11:59:00.240Z,34.10
2018-07-28T12:04:03.336Z,34.90
2018-07-28T12:09:07.479Z,34.60
2018-07-28T12:14:10.506Z,35.00
2018-07-28T12:19:13.564Z,34.90
2018-07-28T12:24:16.767Z,34.40
2018-07-28T12:29:19.820Z,34.20
2018-07-28T12:34:22.915Z,34.60
2018-07-28T12:39:25.991Z,35.00
2018-07-28T12:44:29.152Z,35.50
2018-07-28T12:49:32.376Z,35.90
2018-07-28T12:54:35.429Z,35.60
2018-07-28T12:59:38.468Z,35.20
2018-07-28T13:04:41.715Z,35.60
2018-07-28T13:09:44.779Z,35.10
2018-07-28T13:19:50.758Z,36.30
2018-07-28T13:24:53.864Z,36.80
2018-07-28T13:29:56.983Z,37.00
2018-07-28T13:35:00.023Z,36.70
2018-07-28T13:40:03.036Z,36.10
2018-07-28T13:45:06.127Z,36.70
2018-07-28T13:50:09.172Z,37.10
2018-07-28T13:55:12.228Z,37.20
2018-07-28T14:00:15.304Z,36.70
2018-07-28T14:05:18.384Z,37.10
2018-07-28T14:10:21.411Z,36.80
2018-07-28T14:15:24.513Z,36.30
2018-07-28T14:20:27.471Z,36.70
2018-07-28T14:25:30.571Z,37.10
2018-07-28T14:30:33.612Z,37.30
2018-07-28T14:35:36.647Z,37.50
2018-07-28T14:40:39.728Z,37.90
2018-07-28T14:45:42.807Z,38.20
2018-07-28T14:50:45.820Z,38.30
2018-07-28T14:55:48.878Z,38.40
2018-07-28T15:00:51.945Z,38.10
2018-07-28T15:05:54.975Z,37.40
2018-07-28T15:10:57.975Z,37.50
2018-07-28T15:16:01.022Z,37.50
2018-07-28T15:21:04.073Z,37.10
2018-07-28T15:26:07.166Z,37.40
2018-07-28T15:31:10.223Z,37.60
2018-07-28T15:36:13.326Z,36.70
2018-07-28T15:41:16.411Z,35.70
2018-07-28T15:46:19.536Z,36.00
2018-07-28T15:51:22.606Z,36.30
2018-07-28T15:56:25.652Z,36.30
2018-07-28T16:01:28.703Z,36.40
2018-07-28T16:06:31.766Z,36.80
2018-07-28T16:11:34.806Z,36.60
2018-07-28T16:16:37.863Z,36.10
2018-07-28T16:21:40.903Z,35.60
2018-07-28T16:26:43.922Z,35.80
2018-07-28T16:31:47.048Z,36.00
2018-07-28T16:36:50.444Z,36.30
2018-07-28T16:41:53.756Z,36.50
2018-07-28T16:46:57.184Z,36.40
2018-07-28T16:52:00.612Z,36.30
2018-07-28T16:57:04.593Z,36.30
2018-07-28T17:02:07.709Z,36.20
2018-07-28T17:07:11.260Z,35.70
2018-07-28T17:12:14.753Z,35.00
2018-07-28T17:17:18.044Z,34.40
2018-07-28T17:22:21.373Z,33.90
2018-07-28T17:27:24.403Z,33.20
2018-07-28T17:32:27.712Z,31.30
2018-07-28T17:37:30.867Z,29.80
2018-07-28T17:42:33.928Z,28.80
2018-07-28T17:47:36.963Z,28.30
2018-07-28T17:52:40.174Z,27.20
2018-07-28T17:57:43.246Z,25.10
2018-07-28T18:02:46.283Z,24.10
2018-07-28T18:07:49.341Z,24.00
2018-07-28T18:12:52.387Z,24.00
2018-07-28T18:17:55.407Z,24.00
2018-07-28T18:22:58.420Z,24.30
2018-07-28T18:28:01.655Z,24.50
2018-07-28T18:33:04.710Z,24.80
2018-07-28T18:38:07.724Z,25.10
2018-07-28T18:43:10.876Z,25.40
2018-07-28T18:48:13.903Z,25.60
2018-07-28T18:53:16.925Z,25.80
2018-07-28T18:58:20.080Z,25.90
2018-07-28T19:03:23.247Z,25.40
2018-07-28T19:08:26.247Z,25.10
2018-07-28T19:13:34.789Z,25.20
2018-07-28T19:18:43.407Z,25.60
2018-07-28T19:23:51.965Z,25.30
2018-07-28T19:29:00.617Z,25.20
2018-07-28T19:34:03.716Z,25.40
2018-07-28T19:39:08.057Z,25.20
2018-07-28T19:44:12.016Z,25.00
2018-07-28T19:49:15.056Z,25.00
2018-07-28T19:54:18.197Z,24.80
2018-07-28T19:59:21.131Z,25.10
2018-07-28T20:04:24.223Z,25.10
2018-07-28T20:14:30.279Z,24.20
2018-07-28T20:19:33.378Z,24.30
2018-07-28T20:24:36.395Z,24.40
2018-07-28T20:29:39.460Z,24.70
2018-07-28T20:34:42.659Z,24.70
2018-07-28T20:39:45.812Z,24.70
2018-07-28T20:44:49.254Z,24.70
2018-07-28T20:49:52.340Z,24.60
2018-07-28T20:54:55.466Z,24.70
2018-07-28T20:59:58.523Z,24.90
2018-07-28T21:05:01.635Z,25.00
2018-07-28T21:10:05.233Z,24.90
2018-07-28T21:15:08.399Z,24.80
2018-07-28T21:20:11.503Z,24.80
2018-07-28T21:25:15.023Z,24.90
2018-07-28T21:30:18.154Z,24.40
2018-07-28T21:35:21.177Z,24.20
2018-07-28T21:40:24.225Z,24.30
2018-07-28T21:45:27.275Z,24.40
2018-07-28T21:50:30.336Z,24.60
2018-07-28T21:55:33.404Z,24.50
2018-07-28T22:00:41.893Z,24.40
2018-07-28T22:05:44.951Z,24.30
2018-07-28T22:10:48.014Z,24.10
2018-07-28T22:15:51.901Z,23.90
2018-07-28T22:20:54.987Z,23.90
2018-07-28T22:25:59.034Z,23.80
2018-07-28T22:31:02.161Z,23.80
2018-07-28T22:36:05.219Z,23.80
2018-07-28T22:41:08.242Z,23.80
2018-07-28T22:46:11.299Z,23.60
2018-07-28T22:51:14.363Z,23.50
2018-07-28T22:56:17.367Z,23.20
2018-07-28T23:06:23.310Z,22.90
2018-07-28T23:11:26.352Z,22.60
2018-07-28T23:16:29.455Z,22.60
2018-07-28T23:21:32.592Z,22.40
2018-07-28T23:26:35.672Z,22.30
2018-07-28T23:31:38.711Z,22.20
2018-07-28T23:41:44.733Z,21.90
2018-07-28T23:46:47.984Z,21.90
2018-07-28T23:51:51.212Z,21.80
2018-07-28T23:56:54.752Z,21.90
